createdAt,value
2017-12-02T00:01:08.967Z,5.00
2017-12-02T00:03:36.536Z,4.90
2017-12-02T00:06:04.087Z,4.90
2017-12-02T00:08:31.648Z,5.00
2017-12-02T00:10:59.180Z,5.10
2017-12-02T00:13:26.728Z,5.10
2017-12-02T00:15:54.236Z,5.10
2017-12-02T00:18:21.759Z,5.20
2017-12-02T00:20:49.316Z,5.10
2017-12-02T00:23:16.871Z,5.10
2017-12-02T00:25:44.381Z,5.10
2017-12-02T00:28:11.933Z,5.00
2017-12-02T00:30:40.228Z,4.80
2017-12-02T00:33:07.776Z,4.90
2017-12-02T00:35:36.078Z,5.00
2017-12-02T00:38:03.639Z,4.90
2017-12-02T00:40:31.505Z,4.90
2017-12-02T00:42:59.013Z,4.90
2017-12-02T00:45:26.603Z,4.90
2017-12-02T00:47:54.901Z,4.90
2017-12-02T00:50:22.435Z,4.90
2017-12-02T00:52:50.824Z,4.80
2017-12-02T00:55:19.120Z,4.90
2017-12-02T00:57:46.677Z,4.90
2017-12-02T01:00:14.196Z,4.90
2017-12-02T01:02:41.748Z,5.00
2017-12-02T01:05:09.260Z,4.90
2017-12-02T01:07:36.776Z,4.90
2017-12-02T01:10:04.362Z,4.80
2017-12-02T01:12:31.903Z,4.90
2017-12-02T01:14:59.454Z,4.90
2017-12-02T01:17:27.770Z,4.90
2017-12-02T01:19:55.282Z,4.90
2017-12-02T01:22:23.154Z,4.90
2017-12-02T01:24:50.666Z,4.90
2017-12-02T01:27:18.224Z,4.90
2017-12-02T01:29:45.764Z,4.90
2017-12-02T01:32:13.276Z,4.80
2017-12-02T01:34:40.833Z,4.80
2017-12-02T01:37:08.350Z,4.80
2017-12-02T01:39:35.911Z,4.80
2017-12-02T01:42:03.444Z,4.80
2017-12-02T01:44:30.980Z,4.80
2017-12-02T01:46:58.504Z,4.80
2017-12-02T01:49:26.057Z,4.70
2017-12-02T01:51:53.575Z,4.80
2017-12-02T01:54:21.890Z,4.60
2017-12-02T01:56:49.416Z,4.60
2017-12-02T01:59:16.964Z,4.60
2017-12-02T02:01:44.508Z,4.50
2017-12-02T02:04:12.056Z,4.50
2017-12-02T02:06:39.583Z,4.40
2017-12-02T02:09:07.134Z,4.30
2017-12-02T02:11:34.649Z,4.30
2017-12-02T02:14:02.218Z,4.30
2017-12-02T02:16:29.724Z,4.30
2017-12-02T02:18:57.356Z,4.20
2017-12-02T02:21:24.907Z,4.20
2017-12-02T02:23:53.220Z,4.40
2017-12-02T02:26:20.773Z,4.40
2017-12-02T02:28:48.308Z,4.30
2017-12-02T02:31:16.584Z,4.30
2017-12-02T02:33:49.083Z,4.30
2017-12-02T02:36:16.623Z,4.30
2017-12-02T02:38:44.930Z,4.40
2017-12-02T02:41:12.491Z,4.40
2017-12-02T02:43:45.036Z,4.20
2017-12-02T02:46:13.345Z,4.30
2017-12-02T02:48:41.156Z,4.30
2017-12-02T02:51:08.715Z,4.40
2017-12-02T02:53:36.233Z,4.40
2017-12-02T02:56:04.101Z,4.20
2017-12-02T02:58:31.630Z,4.10
2017-12-02T03:00:59.213Z,4.10
2017-12-02T03:03:26.747Z,4.20
2017-12-02T03:05:54.316Z,4.10
2017-12-02T03:08:21.838Z,4.20
2017-12-02T03:10:49.397Z,4.10
2017-12-02T03:13:16.922Z,4.30
2017-12-02T03:15:44.481Z,4.20
2017-12-02T03:18:12.002Z,4.00
2017-12-02T03:20:40.335Z,4.00
2017-12-02T03:23:07.894Z,4.00
2017-12-02T03:25:35.465Z,4.00
2017-12-02T03:28:03.002Z,4.10
2017-12-02T03:30:30.558Z,4.10
2017-12-02T03:32:58.085Z,4.10
2017-12-02T03:35:25.661Z,4.10
2017-12-02T03:37:53.232Z,4.00
2017-12-02T03:40:20.800Z,4.00
2017-12-02T03:42:48.358Z,3.80
2017-12-02T03:45:15.938Z,3.80
2017-12-02T03:47:43.509Z,3.80
2017-12-02T03:50:11.631Z,3.70
2017-12-02T03:52:39.286Z,3.80
2017-12-02T03:55:06.806Z,3.70
2017-12-02T03:57:34.368Z,3.80
2017-12-02T04:00:01.901Z,3.80
2017-12-02T04:02:29.465Z,3.80
2017-12-02T04:04:57.064Z,3.80
2017-12-02T04:07:25.393Z,3.70
2017-12-02T04:09:52.954Z,3.70
2017-12-02T04:12:20.493Z,3.60
2017-12-02T04:14:48.076Z,3.60
2017-12-02T04:17:15.605Z,3.70
2017-12-02T04:19:43.170Z,3.60
2017-12-02T04:22:10.693Z,3.60
2017-12-02T04:24:38.266Z,3.60
2017-12-02T04:27:05.797Z,3.60
2017-12-02T04:29:33.376Z,3.60
2017-12-02T04:32:00.897Z,3.70
2017-12-02T04:34:28.429Z,3.70
2017-12-02T04:36:56.015Z,3.70
2017-12-02T04:39:23.538Z,3.70
2017-12-02T04:41:51.157Z,3.70
2017-12-02T04:44:18.698Z,3.70
2017-12-02T04:46:46.266Z,3.80
2017-12-02T04:49:13.882Z,3.90
2017-12-02T04:51:41.410Z,3.90
2017-12-02T04:54:08.956Z,3.90
2017-12-02T04:56:36.551Z,3.90
2017-12-02T04:59:04.085Z,4.00
2017-12-02T05:01:31.656Z,3.80
2017-12-02T05:03:59.999Z,3.90
2017-12-02T05:06:27.551Z,3.90
2017-12-02T05:08:55.114Z,4.10
2017-12-02T05:11:23.056Z,4.20
2017-12-02T05:13:50.597Z,4.10
2017-12-02T05:16:18.153Z,4.20
2017-12-02T05:18:45.694Z,4.30
2017-12-02T05:21:14.025Z,4.30
2017-12-02T05:23:41.612Z,4.30
2017-12-02T05:26:09.138Z,4.30
2017-12-02T05:28:36.697Z,4.30
2017-12-02T05:31:04.260Z,4.40
2017-12-02T05:33:31.790Z,4.40
2017-12-02T05:35:59.349Z,4.50
2017-12-02T05:38:26.869Z,4.40
2017-12-02T05:40:54.428Z,4.40
2017-12-02T05:43:21.953Z,4.50
2017-12-02T05:45:49.516Z,4.50
2017-12-02T05:48:17.052Z,4.40
2017-12-02T05:50:44.614Z,4.40
2017-12-02T05:53:12.129Z,4.30
2017-12-02T05:55:39.742Z,4.30
2017-12-02T05:58:07.294Z,4.40
2017-12-02T06:00:34.834Z,4.40
2017-12-02T06:03:02.390Z,4.50
2017-12-02T06:05:30.702Z,4.50
2017-12-02T06:07:58.281Z,4.50
2017-12-02T06:10:25.845Z,4.60
2017-12-02T06:12:53.367Z,4.70
2017-12-02T06:15:20.977Z,4.60
2017-12-02T06:17:48.517Z,4.50
2017-12-02T06:20:16.081Z,4.60
2017-12-02T06:22:43.614Z,4.60
2017-12-02T06:25:11.178Z,4.60
2017-12-02T06:27:38.698Z,4.70
2017-12-02T06:30:06.269Z,4.60
2017-12-02T06:32:33.834Z,4.50
2017-12-02T06:35:01.396Z,4.60
2017-12-02T06:37:28.941Z,4.60
2017-12-02T06:39:57.265Z,4.50
2017-12-02T06:42:24.793Z,4.50
2017-12-02T06:44:52.354Z,4.60
2017-12-02T06:47:19.887Z,4.70
2017-12-02T06:49:47.459Z,4.80
2017-12-02T06:52:15.773Z,4.80
2017-12-02T06:54:44.294Z,4.90
2017-12-02T06:57:11.830Z,4.90
2017-12-02T06:59:39.368Z,4.90
2017-12-02T07:02:06.941Z,4.90
2017-12-02T07:04:34.469Z,4.90
2017-12-02T07:07:02.025Z,4.80
2017-12-02T07:09:29.572Z,4.70
2017-12-02T07:11:57.856Z,4.50
2017-12-02T07:14:25.421Z,4.60
2017-12-02T07:16:53.762Z,4.70
2017-12-02T07:19:21.297Z,4.70
2017-12-02T07:21:48.873Z,4.90
2017-12-02T07:24:16.403Z,4.80
2017-12-02T07:26:44.264Z,4.90
2017-12-02T07:29:11.818Z,4.80
2017-12-02T07:31:39.377Z,4.90
2017-12-02T07:34:06.904Z,5.00
2017-12-02T07:36:35.229Z,5.00
2017-12-02T07:39:02.862Z,5.00
2017-12-02T07:41:30.408Z,5.00
2017-12-02T07:43:57.929Z,5.10
2017-12-02T07:46:25.498Z,5.00
2017-12-02T07:48:53.024Z,5.10
2017-12-02T07:51:20.666Z,5.10
2017-12-02T07:53:48.195Z,5.00
2017-12-02T07:56:15.766Z,5.00
2017-12-02T07:58:43.301Z,5.00
2017-12-02T08:01:10.874Z,4.90
2017-12-02T08:03:38.439Z,4.90
2017-12-02T08:06:06.045Z,4.80
2017-12-02T08:08:33.593Z,4.80
2017-12-02T08:11:01.203Z,4.70
2017-12-02T08:13:28.768Z,4.70
2017-12-02T08:15:56.357Z,4.60
2017-12-02T08:18:23.916Z,4.70
2017-12-02T08:20:51.480Z,4.70
2017-12-02T08:23:19.007Z,4.70
2017-12-02T08:25:46.569Z,4.60
2017-12-02T08:28:14.674Z,4.80
2017-12-02T08:30:42.287Z,4.80
2017-12-02T08:33:09.868Z,4.80
2017-12-02T08:35:38.149Z,4.70
2017-12-02T08:38:05.712Z,4.60
2017-12-02T08:40:34.025Z,4.80
2017-12-02T08:43:01.610Z,4.80
2017-12-02T08:45:29.157Z,4.90
2017-12-02T08:47:56.721Z,4.90
2017-12-02T08:50:24.301Z,4.80
2017-12-02T08:52:51.877Z,4.90
2017-12-02T08:55:19.457Z,4.90
2017-12-02T08:57:47.786Z,4.90
2017-12-02T09:00:15.351Z,4.90
2017-12-02T09:02:42.894Z,5.00
2017-12-02T09:05:10.462Z,5.10
2017-12-02T09:07:38.089Z,5.10
2017-12-02T09:10:05.665Z,5.20
2017-12-02T09:12:33.246Z,5.20
2017-12-02T09:15:01.246Z,5.30
2017-12-02T09:17:28.824Z,5.20
2017-12-02T09:19:56.345Z,5.20
2017-12-02T09:22:23.928Z,5.10
2017-12-02T09:24:52.238Z,5.10
2017-12-02T09:27:19.830Z,5.00
2017-12-02T09:29:47.575Z,4.90
2017-12-02T09:32:15.158Z,5.10
2017-12-02T09:34:42.685Z,5.10
2017-12-02T09:37:10.264Z,5.10
2017-12-02T09:39:37.832Z,5.10
2017-12-02T09:42:05.477Z,5.00
2017-12-02T09:44:33.063Z,5.20
2017-12-02T09:47:00.589Z,5.30
2017-12-02T09:49:28.145Z,5.30
2017-12-02T09:51:55.706Z,5.20
2017-12-02T09:54:23.280Z,5.30
2017-12-02T09:56:50.855Z,5.30
2017-12-02T09:59:18.425Z,5.40
2017-12-02T10:01:45.977Z,5.40
2017-12-02T10:04:13.541Z,5.40
2017-12-02T10:06:41.176Z,5.40
2017-12-02T10:09:08.694Z,5.40
2017-12-02T10:11:37.025Z,5.20
2017-12-02T10:14:04.657Z,5.20
2017-12-02T10:16:32.437Z,5.20
2017-12-02T10:18:59.995Z,5.20
2017-12-02T10:21:27.513Z,5.30
2017-12-02T10:23:55.134Z,5.40
2017-12-02T10:26:22.779Z,5.40
2017-12-02T10:28:50.355Z,5.40
2017-12-02T10:31:17.913Z,5.40
2017-12-02T10:33:45.489Z,5.40
2017-12-02T10:36:13.020Z,5.50
2017-12-02T10:38:40.637Z,5.40
2017-12-02T10:41:08.190Z,5.40
2017-12-02T10:43:35.754Z,5.20
2017-12-02T10:46:03.762Z,5.20
2017-12-02T10:48:31.334Z,5.20
2017-12-02T10:50:58.876Z,5.20
2017-12-02T10:53:26.447Z,5.20
2017-12-02T10:55:54.000Z,5.20
2017-12-02T10:58:21.738Z,5.20
2017-12-02T11:00:49.291Z,5.20
2017-12-02T11:03:17.607Z,5.30
2017-12-02T11:05:45.178Z,5.30
2017-12-02T11:08:12.781Z,5.20
2017-12-02T11:10:40.305Z,5.20
2017-12-02T11:13:07.941Z,5.20
2017-12-02T11:15:35.454Z,5.20
2017-12-02T11:18:03.065Z,5.20
2017-12-02T11:20:30.606Z,5.30
2017-12-02T11:22:58.902Z,5.30
2017-12-02T11:25:26.734Z,5.30
2017-12-02T11:27:55.061Z,5.20
2017-12-02T11:30:22.611Z,5.20
2017-12-02T11:32:50.181Z,5.20
2017-12-02T11:35:17.709Z,5.30
2017-12-02T11:37:46.029Z,5.30
2017-12-02T11:40:13.582Z,5.20
2017-12-02T11:42:41.354Z,5.30
2017-12-02T11:45:08.875Z,5.30
2017-12-02T11:47:36.558Z,5.30
2017-12-02T11:50:04.130Z,5.30
2017-12-02T11:52:31.742Z,5.30
2017-12-02T11:54:59.216Z,5.40
2017-12-02T11:57:26.777Z,5.40
2017-12-02T11:59:54.313Z,5.40
2017-12-02T12:02:21.877Z,5.40
2017-12-02T12:04:50.360Z,5.50
2017-12-02T12:07:17.936Z,5.50
2017-12-02T12:09:45.473Z,5.40
2017-12-02T12:12:13.812Z,5.40
2017-12-02T12:14:41.381Z,5.30
2017-12-02T12:17:08.925Z,5.30
2017-12-02T12:19:36.450Z,5.30
2017-12-02T12:22:04.007Z,5.40
2017-12-02T12:24:31.643Z,5.30
2017-12-02T12:26:59.234Z,5.40
2017-12-02T12:29:26.802Z,5.40
2017-12-02T12:31:54.405Z,5.30
2017-12-02T12:34:22.234Z,5.20
2017-12-02T12:36:49.783Z,5.20
2017-12-02T12:39:17.377Z,5.20
2017-12-02T12:41:44.953Z,5.20
2017-12-02T12:44:12.498Z,5.20
2017-12-02T12:46:40.089Z,5.30
2017-12-02T12:49:07.666Z,5.20
2017-12-02T12:51:35.966Z,5.20
2017-12-02T12:54:03.520Z,5.20
2017-12-02T12:56:31.099Z,5.10
2017-12-02T12:58:58.665Z,5.10
2017-12-02T13:01:26.246Z,5.10
2017-12-02T13:03:53.784Z,5.00
2017-12-02T13:06:21.343Z,5.20
2017-12-02T13:08:48.900Z,5.10
2017-12-02T13:11:16.461Z,5.00
2017-12-02T13:13:44.023Z,4.90
2017-12-02T13:16:11.569Z,4.90
2017-12-02T13:18:39.524Z,4.80
2017-12-02T13:21:07.065Z,5.00
2017-12-02T13:23:34.612Z,5.10
2017-12-02T13:26:02.208Z,5.10
2017-12-02T13:28:29.764Z,5.20
2017-12-02T13:30:57.285Z,5.10
2017-12-02T13:33:24.853Z,5.20
2017-12-02T13:35:53.167Z,5.10
2017-12-02T13:38:20.709Z,5.10
2017-12-02T13:40:48.245Z,5.10
2017-12-02T13:43:15.793Z,5.10
2017-12-02T13:45:43.347Z,5.00
2017-12-02T13:48:10.917Z,5.00
2017-12-02T13:50:38.467Z,5.10
2017-12-02T13:53:06.037Z,4.90
2017-12-02T13:55:33.558Z,4.70
2017-12-02T13:58:01.147Z,4.70
2017-12-02T14:00:28.677Z,4.70
2017-12-02T14:02:56.596Z,4.60
2017-12-02T14:05:24.158Z,4.50
2017-12-02T14:07:51.704Z,4.60
2017-12-02T14:10:19.298Z,4.70
2017-12-02T14:12:46.898Z,4.70
2017-12-02T14:15:14.434Z,4.80
2017-12-02T14:17:41.994Z,4.90
2017-12-02T14:20:09.557Z,4.80
2017-12-02T14:22:37.080Z,4.80
2017-12-02T14:25:05.411Z,4.90
2017-12-02T14:27:32.969Z,4.80
2017-12-02T14:30:00.528Z,4.90
2017-12-02T14:32:28.050Z,5.00
2017-12-02T14:34:55.597Z,5.00
2017-12-02T14:37:23.961Z,4.90
2017-12-02T14:39:51.774Z,4.90
2017-12-02T14:42:19.349Z,4.90
2017-12-02T14:44:47.305Z,4.90
2017-12-02T14:47:14.829Z,5.00
2017-12-02T14:49:43.157Z,5.00
2017-12-02T14:52:10.722Z,5.00
2017-12-02T14:54:38.733Z,4.90
2017-12-02T14:57:07.022Z,4.90
2017-12-02T14:59:35.360Z,4.90
2017-12-02T15:02:02.886Z,4.90
2017-12-02T15:04:30.442Z,4.90
2017-12-02T15:06:57.969Z,4.90
2017-12-02T15:09:25.586Z,4.80
2017-12-02T15:11:53.111Z,4.90
2017-12-02T15:14:20.669Z,5.00
2017-12-02T15:16:48.542Z,5.00
2017-12-02T15:19:16.155Z,5.00
2017-12-02T15:21:43.694Z,5.10
2017-12-02T15:24:12.172Z,4.90
2017-12-02T15:26:39.705Z,4.90
2017-12-02T15:29:07.271Z,4.90
2017-12-02T15:31:34.840Z,5.00
2017-12-02T15:34:02.406Z,4.90
2017-12-02T15:36:29.980Z,4.80
2017-12-02T15:38:57.542Z,4.90
2017-12-02T15:41:25.084Z,4.90
2017-12-02T15:43:52.879Z,4.80
2017-12-02T15:46:20.440Z,4.80
2017-12-02T15:48:47.997Z,4.90
2017-12-02T15:51:15.569Z,5.00
2017-12-02T15:53:43.117Z,4.90
2017-12-02T15:56:10.637Z,4.80
2017-12-02T15:58:38.400Z,4.80
2017-12-02T16:01:05.988Z,4.80
2017-12-02T16:03:33.559Z,4.80
2017-12-02T16:06:01.090Z,4.70
2017-12-02T16:08:28.650Z,4.80
2017-12-02T16:10:56.182Z,4.80
2017-12-02T16:13:23.760Z,4.90
2017-12-02T16:15:51.306Z,4.90
2017-12-02T16:18:18.845Z,4.90
2017-12-02T16:20:46.479Z,4.90
2017-12-02T16:23:14.083Z,4.80
2017-12-02T16:25:41.651Z,4.80
2017-12-02T16:28:09.204Z,4.90
2017-12-02T16:30:36.802Z,4.90
2017-12-02T16:33:04.337Z,4.80
2017-12-02T16:35:31.897Z,4.80
2017-12-02T16:37:59.454Z,4.90
2017-12-02T16:40:27.441Z,5.00
2017-12-02T16:42:55.001Z,5.00
2017-12-02T16:45:22.853Z,4.90
2017-12-02T16:47:50.419Z,4.80
2017-12-02T16:50:17.953Z,4.90
2017-12-02T16:52:45.528Z,4.90
2017-12-02T16:55:13.077Z,5.00
2017-12-02T16:57:40.612Z,5.00
2017-12-02T17:00:08.567Z,4.90
2017-12-02T17:02:36.092Z,5.00
2017-12-02T17:05:03.646Z,4.90
2017-12-02T17:07:31.505Z,4.90
2017-12-02T17:09:59.064Z,5.00
2017-12-02T17:12:26.633Z,5.00
2017-12-02T17:14:54.165Z,5.10
2017-12-02T17:17:21.750Z,5.00
2017-12-02T17:19:49.336Z,5.00
2017-12-02T17:22:16.884Z,5.00
2017-12-02T17:24:44.446Z,5.00
2017-12-02T17:27:11.970Z,4.90
2017-12-02T17:29:39.501Z,5.00
2017-12-02T17:32:07.074Z,4.90
2017-12-02T17:34:34.609Z,4.90
2017-12-02T17:37:02.185Z,5.00
2017-12-02T17:39:30.535Z,4.90
2017-12-02T17:41:58.108Z,4.90
2017-12-02T17:44:25.632Z,4.90
2017-12-02T17:46:53.194Z,4.80
2017-12-02T17:49:20.780Z,4.80
2017-12-02T17:51:48.316Z,4.90
2017-12-02T17:54:15.862Z,5.00
2017-12-02T17:56:43.438Z,4.80
2017-12-02T17:59:10.997Z,4.80
2017-12-02T18:01:38.557Z,4.80
2017-12-02T18:04:06.091Z,4.80
2017-12-02T18:06:33.613Z,4.90
2017-12-02T18:09:01.207Z,4.90
2017-12-02T18:11:28.731Z,4.80
2017-12-02T18:13:57.053Z,4.90
2017-12-02T18:16:24.573Z,4.90
2017-12-02T18:18:52.896Z,4.90
2017-12-02T18:21:20.603Z,4.80
2017-12-02T18:23:48.202Z,4.80
2017-12-02T18:26:15.733Z,4.80
2017-12-02T18:28:43.288Z,4.80
2017-12-02T18:31:10.844Z,4.80
2017-12-02T18:33:39.144Z,4.90
2017-12-02T18:36:06.660Z,4.80
2017-12-02T18:38:34.264Z,4.90
2017-12-02T18:41:01.792Z,4.80
2017-12-02T18:43:29.425Z,4.70
2017-12-02T18:45:56.948Z,4.80
2017-12-02T18:48:24.500Z,4.80
2017-12-02T18:50:52.086Z,4.90
2017-12-02T18:53:19.664Z,4.90
2017-12-02T18:55:47.205Z,4.90
2017-12-02T18:58:14.778Z,4.90
2017-12-02T19:00:42.351Z,4.90
2017-12-02T19:03:09.901Z,5.00
2017-12-02T19:05:37.504Z,4.90
2017-12-02T19:08:05.797Z,4.90
2017-12-02T19:10:33.685Z,4.90
2017-12-02T19:13:01.265Z,4.80
2017-12-02T19:15:28.824Z,4.80
2017-12-02T19:17:56.425Z,4.90
2017-12-02T19:20:23.954Z,4.90
2017-12-02T19:22:51.514Z,4.80
2017-12-02T19:25:19.108Z,4.80
2017-12-02T19:27:46.692Z,4.70
2017-12-02T19:30:14.218Z,4.70
2017-12-02T19:32:41.757Z,4.70
2017-12-02T19:35:09.335Z,4.70
2017-12-02T19:37:36.883Z,4.80
2017-12-02T19:40:04.417Z,4.90
2017-12-02T19:42:31.997Z,4.80
2017-12-02T19:44:59.546Z,4.80
2017-12-02T19:47:27.100Z,4.80
2017-12-02T19:49:54.625Z,4.70
2017-12-02T19:52:22.182Z,4.70
2017-12-02T19:54:49.710Z,4.60
2017-12-02T19:57:17.278Z,4.60
2017-12-02T19:59:44.798Z,4.70
2017-12-02T20:02:12.362Z,4.70
2017-12-02T20:04:39.935Z,4.80
2017-12-02T20:07:07.518Z,4.90
2017-12-02T20:09:35.870Z,4.80
2017-12-02T20:12:03.442Z,4.80
2017-12-02T20:14:31.057Z,4.80
2017-12-02T20:16:58.642Z,4.80
2017-12-02T20:19:26.158Z,4.80
2017-12-02T20:21:53.735Z,4.70
2017-12-02T20:24:21.350Z,4.70
2017-12-02T20:26:48.918Z,4.70
2017-12-02T20:29:17.210Z,4.70
2017-12-02T20:31:44.729Z,4.70
2017-12-02T20:34:12.344Z,4.80
2017-12-02T20:36:39.874Z,4.80
2017-12-02T20:39:07.452Z,4.90
2017-12-02T20:41:34.976Z,4.80
2017-12-02T20:44:02.586Z,4.80
2017-12-02T20:46:30.182Z,4.70
2017-12-02T20:48:57.715Z,4.80
2017-12-02T20:51:25.315Z,4.80
2017-12-02T20:53:52.861Z,4.80
2017-12-02T20:56:20.482Z,4.70
2017-12-02T20:58:48.112Z,4.70
2017-12-02T21:01:16.405Z,4.80
2017-12-02T21:03:43.938Z,4.80
2017-12-02T21:06:11.486Z,4.80
2017-12-02T21:08:39.298Z,4.80
2017-12-02T21:11:06.843Z,4.90
2017-12-02T21:13:34.405Z,4.70
2017-12-02T21:16:02.837Z,4.70
2017-12-02T21:18:30.414Z,4.70
2017-12-02T21:20:57.981Z,4.60
2017-12-02T21:23:25.677Z,4.60
2017-12-02T21:25:53.235Z,4.60
2017-12-02T21:28:21.536Z,4.60
2017-12-02T21:30:49.097Z,4.60
2017-12-02T21:33:16.650Z,4.70
2017-12-02T21:35:44.169Z,4.80
2017-12-02T21:38:11.728Z,4.70
2017-12-02T21:40:39.254Z,4.70
2017-12-02T21:43:06.828Z,4.70
2017-12-02T21:45:34.389Z,4.70
2017-12-02T21:48:01.926Z,4.70
2017-12-02T21:50:29.524Z,4.70
2017-12-02T21:52:57.062Z,4.80
2017-12-02T21:55:24.614Z,4.80
2017-12-02T21:57:52.132Z,4.80
2017-12-02T22:00:19.719Z,4.90
2017-12-02T22:02:47.297Z,4.90
2017-12-02T22:05:14.821Z,4.70
2017-12-02T22:07:42.377Z,4.70
2017-12-02T22:10:09.908Z,4.80
2017-12-02T22:12:38.236Z,4.70
2017-12-02T22:15:05.760Z,4.70
2017-12-02T22:17:34.084Z,4.60
2017-12-02T22:20:01.641Z,4.60
2017-12-02T22:22:29.166Z,4.70
2017-12-02T22:24:56.807Z,4.70
2017-12-02T22:27:25.172Z,4.70
2017-12-02T22:29:52.788Z,4.70
2017-12-02T22:32:20.377Z,4.80
2017-12-02T22:34:47.933Z,4.70
2017-12-02T22:37:15.528Z,4.60
2017-12-02T22:39:43.050Z,4.50
2017-12-02T22:42:10.705Z,4.60
2017-12-02T22:44:38.308Z,4.60
2017-12-02T22:47:06.686Z,4.60
2017-12-02T22:49:34.981Z,4.60
2017-12-02T22:52:02.517Z,4.60
2017-12-02T22:54:30.851Z,4.70
2017-12-02T22:57:03.486Z,4.60
2017-12-02T22:59:31.040Z,4.60
2017-12-02T23:01:59.356Z,4.70
2017-12-02T23:04:27.062Z,4.60
2017-12-02T23:06:54.687Z,4.60
2017-12-02T23:09:22.245Z,4.60
2017-12-02T23:11:49.808Z,4.60
2017-12-02T23:14:17.330Z,4.50
2017-12-02T23:16:45.670Z,4.60
2017-12-02T23:21:40.736Z,4.70
2017-12-02T23:24:08.289Z,4.60
2017-12-02T23:26:35.833Z,4.60
2017-12-02T23:29:04.152Z,4.50
2017-12-02T23:31:31.838Z,4.50
2017-12-02T23:33:59.415Z,4.50
2017-12-02T23:36:26.975Z,4.50
2017-12-02T23:38:54.534Z,4.50
2017-12-02T23:41:22.140Z,4.50
2017-12-02T23:43:49.622Z,4.50
2017-12-02T23:46:17.175Z,4.40
2017-12-02T23:48:44.732Z,4.40
2017-12-02T23:51:12.258Z,4.50
2017-12-02T23:53:40.578Z,4.70
2017-12-02T23:56:08.137Z,4.70
2017-12-02T23:58:35.662Z,4.70
